sensor_id;sensor_type;location;lat;lon;timestamp;P1;durP1;ratioP1;P2;durP2;ratioP2
57433;SDS011;43277;52.672;6.984;2022-08-19T00:00:35;12.82;;;10.90;;
57433;SDS011;43277;52.672;6.984;2022-08-19T00:03:01;13.30;;;11.90;;
57433;SDS011;43277;52.672;6.984;2022-08-19T00:05:28;12.65;;;11.15;;
57433;SDS011;43277;52.672;6.984;2022-08-19T00:07:53;13.80;;;11.90;;
57433;SDS011;43277;52.672;6.984;2022-08-19T00:10:19;14.25;;;12.63;;
57433;SDS011;43277;52.672;6.984;2022-08-19T00:12:46;15.50;;;11.27;;
57433;SDS011;43277;52.672;6.984;2022-08-19T00:15:12;13.90;;;12.48;;
57433;SDS011;43277;52.672;6.984;2022-08-19T00:17:42;14.10;;;12.40;;
57433;SDS011;43277;52.672;6.984;2022-08-19T00:20:09;14.05;;;12.60;;
57433;SDS011;43277;52.672;6.984;2022-08-19T00:22:45;12.98;;;11.18;;
57433;SDS011;43277;52.672;6.984;2022-08-19T00:25:12;13.15;;;11.75;;
57433;SDS011;43277;52.672;6.984;2022-08-19T00:27:39;13.85;;;11.70;;
57433;SDS011;43277;52.672;6.984;2022-08-19T00:30:05;13.30;;;11.90;;
57433;SDS011;43277;52.672;6.984;2022-08-19T00:32:32;13.90;;;12.40;;
57433;SDS011;43277;52.672;6.984;2022-08-19T00:34:59;14.20;;;12.70;;
57433;SDS011;43277;52.672;6.984;2022-08-19T00:37:26;14.38;;;12.82;;
57433;SDS011;43277;52.672;6.984;2022-08-19T00:39:52;14.38;;;13.02;;
57433;SDS011;43277;52.672;6.984;2022-08-19T00:42:19;15.77;;;13.90;;
57433;SDS011;43277;52.672;6.984;2022-08-19T00:44:46;12.95;;;11.65;;
57433;SDS011;43277;52.672;6.984;2022-08-19T00:47:12;14.32;;;12.63;;
57433;SDS011;43277;52.672;6.984;2022-08-19T00:49:41;15.77;;;12.77;;
57433;SDS011;43277;52.672;6.984;2022-08-19T00:52:15;14.73;;;13.23;;
57433;SDS011;43277;52.672;6.984;2022-08-19T00:54:46;13.95;;;12.25;;
57433;SDS011;43277;52.672;6.984;2022-08-19T00:57:15;15.68;;;14.00;;
57433;SDS011;43277;52.672;6.984;2022-08-19T00:59:44;13.68;;;12.07;;
57433;SDS011;43277;52.672;6.984;2022-08-19T01:02:12;15.57;;;13.70;;
57433;SDS011;43277;52.672;6.984;2022-08-19T01:04:40;17.25;;;14.48;;
57433;SDS011;43277;52.672;6.984;2022-08-19T01:07:05;16.58;;;14.77;;
57433;SDS011;43277;52.672;6.984;2022-08-19T01:09:32;16.55;;;13.90;;
57433;SDS011;43277;52.672;6.984;2022-08-19T01:11:58;16.30;;;14.68;;
57433;SDS011;43277;52.672;6.984;2022-08-19T01:14:24;16.58;;;14.88;;
57433;SDS011;43277;52.672;6.984;2022-08-19T01:16:50;17.63;;;15.82;;
57433;SDS011;43277;52.672;6.984;2022-08-19T01:19:26;17.13;;;15.32;;
57433;SDS011;43277;52.672;6.984;2022-08-19T01:21:57;17.63;;;15.80;;
57433;SDS011;43277;52.672;6.984;2022-08-19T01:24:32;18.23;;;16.25;;
57433;SDS011;43277;52.672;6.984;2022-08-19T01:26:58;15.57;;;13.98;;
57433;SDS011;43277;52.672;6.984;2022-08-19T01:29:24;17.48;;;15.20;;
57433;SDS011;43277;52.672;6.984;2022-08-19T01:31:50;15.18;;;13.20;;
57433;SDS011;43277;52.672;6.984;2022-08-19T01:34:17;13.05;;;11.65;;
57433;SDS011;43277;52.672;6.984;2022-08-19T01:36:44;14.55;;;13.05;;
57433;SDS011;43277;52.672;6.984;2022-08-19T01:39:17;14.18;;;12.45;;
57433;SDS011;43277;52.672;6.984;2022-08-19T01:41:49;13.07;;;10.80;;
57433;SDS011;43277;52.672;6.984;2022-08-19T01:44:17;15.18;;;11.02;;
57433;SDS011;43277;52.672;6.984;2022-08-19T01:46:46;28.83;;;12.93;;
57433;SDS011;43277;52.672;6.984;2022-08-19T01:49:13;55.55;;;15.43;;
57433;SDS011;43277;52.672;6.984;2022-08-19T01:51:39;170.55;;;24.23;;
57433;SDS011;43277;52.672;6.984;2022-08-19T01:54:05;14.52;;;11.25;;
57433;SDS011;43277;52.672;6.984;2022-08-19T01:56:32;10.10;;;9.05;;
57433;SDS011;43277;52.672;6.984;2022-08-19T01:58:59;12.32;;;11.02;;
57433;SDS011;43277;52.672;6.984;2022-08-19T02:01:28;11.88;;;10.23;;
57433;SDS011;43277;52.672;6.984;2022-08-19T02:03:57;14.55;;;12.60;;
57433;SDS011;43277;52.672;6.984;2022-08-19T02:06:23;15.70;;;13.32;;
57433;SDS011;43277;52.672;6.984;2022-08-19T02:08:49;14.90;;;13.40;;
57433;SDS011;43277;52.672;6.984;2022-08-19T02:11:22;13.77;;;12.38;;
57433;SDS011;43277;52.672;6.984;2022-08-19T02:13:58;13.30;;;11.98;;
57433;SDS011;43277;52.672;6.984;2022-08-19T02:16:27;14.50;;;12.00;;
57433;SDS011;43277;52.672;6.984;2022-08-19T02:18:53;13.82;;;12.43;;
57433;SDS011;43277;52.672;6.984;2022-08-19T02:21:20;14.35;;;12.73;;
57433;SDS011;43277;52.672;6.984;2022-08-19T02:23:47;11.43;;;10.30;;
57433;SDS011;43277;52.672;6.984;2022-08-19T02:26:13;10.98;;;9.82;;
57433;SDS011;43277;52.672;6.984;2022-08-19T02:28:39;10.57;;;9.00;;
57433;SDS011;43277;52.672;6.984;2022-08-19T02:31:09;9.55;;;8.18;;
57433;SDS011;43277;52.672;6.984;2022-08-19T02:33:36;9.48;;;7.50;;
57433;SDS011;43277;52.672;6.984;2022-08-19T02:36:05;10.68;;;7.45;;
57433;SDS011;43277;52.672;6.984;2022-08-19T02:38:32;11.40;;;10.00;;
57433;SDS011;43277;52.672;6.984;2022-08-19T02:41:03;9.27;;;7.80;;
57433;SDS011;43277;52.672;6.984;2022-08-19T02:43:31;9.98;;;7.75;;
57433;SDS011;43277;52.672;6.984;2022-08-19T02:45:57;9.00;;;7.53;;
57433;SDS011;43277;52.672;6.984;2022-08-19T02:48:23;9.07;;;7.95;;
57433;SDS011;43277;52.672;6.984;2022-08-19T02:50:50;9.25;;;8.05;;
57433;SDS011;43277;52.672;6.984;2022-08-19T02:53:19;10.60;;;8.77;;
57433;SDS011;43277;52.672;6.984;2022-08-19T02:55:47;9.50;;;8.15;;
57433;SDS011;43277;52.672;6.984;2022-08-19T02:58:13;7.90;;;6.50;;
57433;SDS011;43277;52.672;6.984;2022-08-19T03:00:43;9.02;;;6.28;;
57433;SDS011;43277;52.672;6.984;2022-08-19T03:03:11;7.07;;;5.40;;
57433;SDS011;43277;52.672;6.984;2022-08-19T03:05:37;7.15;;;5.22;;
57433;SDS011;43277;52.672;6.984;2022-08-19T03:08:03;6.93;;;5.13;;
57433;SDS011;43277;52.672;6.984;2022-08-19T03:10:29;6.78;;;4.65;;
57433;SDS011;43277;52.672;6.984;2022-08-19T03:12:54;7.40;;;5.57;;
57433;SDS011;43277;52.672;6.984;2022-08-19T03:15:20;6.65;;;5.38;;
57433;SDS011;43277;52.672;6.984;2022-08-19T03:17:45;8.10;;;6.63;;
57433;SDS011;43277;52.672;6.984;2022-08-19T03:20:11;8.90;;;7.35;;
57433;SDS011;43277;52.672;6.984;2022-08-19T03:22:36;8.18;;;6.53;;
57433;SDS011;43277;52.672;6.984;2022-08-19T03:25:02;109.32;;;10.40;;
57433;SDS011;43277;52.672;6.984;2022-08-19T03:27:28;157.05;;;14.88;;
57433;SDS011;43277;52.672;6.984;2022-08-19T03:29:54;59.53;;;11.60;;
57433;SDS011;43277;52.672;6.984;2022-08-19T03:32:20;124.63;;;18.77;;
57433;SDS011;43277;52.672;6.984;2022-08-19T03:34:46;280.60;;;25.63;;
57433;SDS011;43277;52.672;6.984;2022-08-19T03:37:12;65.32;;;18.10;;
57433;SDS011;43277;52.672;6.984;2022-08-19T03:39:38;40.45;;;17.00;;
57433;SDS011;43277;52.672;6.984;2022-08-19T03:42:05;17.13;;;12.90;;
57433;SDS011;43277;52.672;6.984;2022-08-19T03:44:31;103.40;;;23.42;;
57433;SDS011;43277;52.672;6.984;2022-08-19T03:46:58;105.18;;;14.20;;
57433;SDS011;43277;52.672;6.984;2022-08-19T03:49:28;14.75;;;13.13;;
57433;SDS011;43277;52.672;6.984;2022-08-19T03:51:55;16.38;;;14.18;;
57433;SDS011;43277;52.672;6.984;2022-08-19T03:54:23;14.93;;;11.70;;
57433;SDS011;43277;52.672;6.984;2022-08-19T03:56:50;10.45;;;9.30;;
57433;SDS011;43277;52.672;6.984;2022-08-19T03:59:23;13.85;;;8.82;;
57433;SDS011;43277;52.672;6.984;2022-08-19T04:01:51;18.88;;;7.05;;
57433;SDS011;43277;52.672;6.984;2022-08-19T04:04:19;16.63;;;6.55;;
57433;SDS011;43277;52.672;6.984;2022-08-19T04:06:44;8.18;;;6.50;;
57433;SDS011;43277;52.672;6.984;2022-08-19T04:09:12;11.15;;;8.93;;
57433;SDS011;43277;52.672;6.984;2022-08-19T04:11:43;12.50;;;9.45;;
57433;SDS011;43277;52.672;6.984;2022-08-19T04:14:12;11.38;;;8.00;;
57433;SDS011;43277;52.672;6.984;2022-08-19T04:16:39;12.48;;;8.05;;
57433;SDS011;43277;52.672;6.984;2022-08-19T04:19:05;12.38;;;9.88;;
57433;SDS011;43277;52.672;6.984;2022-08-19T04:21:31;10.15;;;7.93;;
57433;SDS011;43277;52.672;6.984;2022-08-19T04:23:58;11.70;;;9.63;;
57433;SDS011;43277;52.672;6.984;2022-08-19T04:26:28;14.73;;;10.20;;
57433;SDS011;43277;52.672;6.984;2022-08-19T04:28:57;14.27;;;10.95;;
57433;SDS011;43277;52.672;6.984;2022-08-19T04:31:30;14.23;;;11.60;;
57433;SDS011;43277;52.672;6.984;2022-08-19T04:34:01;11.70;;;10.50;;
57433;SDS011;43277;52.672;6.984;2022-08-19T04:36:31;14.50;;;11.52;;
57433;SDS011;43277;52.672;6.984;2022-08-19T04:38:59;16.33;;;12.23;;
57433;SDS011;43277;52.672;6.984;2022-08-19T04:41:28;16.80;;;13.83;;
57433;SDS011;43277;52.672;6.984;2022-08-19T04:44:12;16.95;;;13.05;;
57433;SDS011;43277;52.672;6.984;2022-08-19T04:46:39;18.33;;;15.60;;
57433;SDS011;43277;52.672;6.984;2022-08-19T04:49:05;35.85;;;18.70;;
57433;SDS011;43277;52.672;6.984;2022-08-19T04:51:32;17.52;;;15.18;;
57433;SDS011;43277;52.672;6.984;2022-08-19T04:53:58;18.17;;;16.08;;
57433;SDS011;43277;52.672;6.984;2022-08-19T04:56:25;18.10;;;15.23;;
57433;SDS011;43277;52.672;6.984;2022-08-19T04:58:51;15.05;;;12.30;;
57433;SDS011;43277;52.672;6.984;2022-08-19T05:01:18;13.57;;;10.68;;
57433;SDS011;43277;52.672;6.984;2022-08-19T05:03:47;14.35;;;10.90;;
57433;SDS011;43277;52.672;6.984;2022-08-19T05:06:14;25.98;;;10.05;;
57433;SDS011;43277;52.672;6.984;2022-08-19T05:08:43;25.73;;;10.18;;
57433;SDS011;43277;52.672;6.984;2022-08-19T05:13:36;62.72;;;18.30;;
57433;SDS011;43277;52.672;6.984;2022-08-19T05:16:02;25.15;;;14.02;;
57433;SDS011;43277;52.672;6.984;2022-08-19T05:18:27;25.13;;;15.90;;
57433;SDS011;43277;52.672;6.984;2022-08-19T05:21:13;27.05;;;16.10;;
57433;SDS011;43277;52.672;6.984;2022-08-19T05:23:59;27.52;;;17.00;;
57433;SDS011;43277;52.672;6.984;2022-08-19T05:26:25;22.70;;;15.82;;
57433;SDS011;43277;52.672;6.984;2022-08-19T05:28:51;22.50;;;15.55;;
57433;SDS011;43277;52.672;6.984;2022-08-19T05:31:17;18.38;;;13.57;;
57433;SDS011;43277;52.672;6.984;2022-08-19T05:33:43;19.27;;;14.07;;
57433;SDS011;43277;52.672;6.984;2022-08-19T05:36:09;61.83;;;20.02;;
57433;SDS011;43277;52.672;6.984;2022-08-19T05:38:35;75.05;;;24.17;;
57433;SDS011;43277;52.672;6.984;2022-08-19T05:41:06;53.97;;;19.90;;
57433;SDS011;43277;52.672;6.984;2022-08-19T05:43:36;23.88;;;13.85;;
57433;SDS011;43277;52.672;6.984;2022-08-19T05:46:02;37.70;;;17.90;;
57433;SDS011;43277;52.672;6.984;2022-08-19T05:48:30;15.70;;;12.80;;
57433;SDS011;43277;52.672;6.984;2022-08-19T05:51:06;17.35;;;11.95;;
57433;SDS011;43277;52.672;6.984;2022-08-19T05:53:33;36.13;;;19.05;;
57433;SDS011;43277;52.672;6.984;2022-08-19T05:56:09;26.30;;;18.02;;
57433;SDS011;43277;52.672;6.984;2022-08-19T05:58:38;21.58;;;17.50;;
57433;SDS011;43277;52.672;6.984;2022-08-19T06:01:08;17.63;;;14.88;;
57433;SDS011;43277;52.672;6.984;2022-08-19T06:03:36;14.52;;;12.93;;
57433;SDS011;43277;52.672;6.984;2022-08-19T06:06:03;15.88;;;13.02;;
57433;SDS011;43277;52.672;6.984;2022-08-19T06:08:29;20.92;;;17.48;;
57433;SDS011;43277;52.672;6.984;2022-08-19T06:10:55;23.52;;;18.00;;
57433;SDS011;43277;52.672;6.984;2022-08-19T06:13:21;21.13;;;17.00;;
57433;SDS011;43277;52.672;6.984;2022-08-19T06:15:47;22.77;;;18.90;;
57433;SDS011;43277;52.672;6.984;2022-08-19T06:18:13;27.50;;;22.23;;
57433;SDS011;43277;52.672;6.984;2022-08-19T06:20:41;33.92;;;24.35;;
57433;SDS011;43277;52.672;6.984;2022-08-19T06:23:07;29.65;;;22.63;;
57433;SDS011;43277;52.672;6.984;2022-08-19T06:25:33;22.55;;;19.75;;
57433;SDS011;43277;52.672;6.984;2022-08-19T06:27:59;24.77;;;21.98;;
57433;SDS011;43277;52.672;6.984;2022-08-19T06:30:25;24.08;;;20.98;;
57433;SDS011;43277;52.672;6.984;2022-08-19T06:32:52;27.27;;;23.05;;
57433;SDS011;43277;52.672;6.984;2022-08-19T06:35:17;25.42;;;22.80;;
57433;SDS011;43277;52.672;6.984;2022-08-19T06:37:43;21.73;;;19.42;;
57433;SDS011;43277;52.672;6.984;2022-08-19T06:40:09;25.08;;;22.05;;
57433;SDS011;43277;52.672;6.984;2022-08-19T06:42:37;23.63;;;20.83;;
57433;SDS011;43277;52.672;6.984;2022-08-19T06:45:03;23.73;;;20.90;;
57433;SDS011;43277;52.672;6.984;2022-08-19T06:47:30;24.80;;;22.17;;
57433;SDS011;43277;52.672;6.984;2022-08-19T06:49:57;25.00;;;21.40;;
57433;SDS011;43277;52.672;6.984;2022-08-19T06:52:28;20.85;;;17.83;;
57433;SDS011;43277;52.672;6.984;2022-08-19T06:54:58;26.33;;;20.45;;
57433;SDS011;43277;52.672;6.984;2022-08-19T06:57:24;20.98;;;18.20;;
57433;SDS011;43277;52.672;6.984;2022-08-19T06:59:51;19.17;;;16.30;;
57433;SDS011;43277;52.672;6.984;2022-08-19T07:02:17;19.48;;;16.25;;
57433;SDS011;43277;52.672;6.984;2022-08-19T07:04:43;18.92;;;16.63;;
57433;SDS011;43277;52.672;6.984;2022-08-19T07:07:09;18.00;;;15.10;;
57433;SDS011;43277;52.672;6.984;2022-08-19T07:09:38;17.08;;;14.05;;
57433;SDS011;43277;52.672;6.984;2022-08-19T07:12:06;16.23;;;13.57;;
57433;SDS011;43277;52.672;6.984;2022-08-19T07:14:34;17.15;;;13.75;;
57433;SDS011;43277;52.672;6.984;2022-08-19T07:17:02;17.10;;;14.52;;
57433;SDS011;43277;52.672;6.984;2022-08-19T07:19:30;16.88;;;14.65;;
57433;SDS011;43277;52.672;6.984;2022-08-19T07:21:56;21.27;;;14.15;;
57433;SDS011;43277;52.672;6.984;2022-08-19T07:24:26;19.50;;;14.82;;
57433;SDS011;43277;52.672;6.984;2022-08-19T07:26:55;16.80;;;15.00;;
57433;SDS011;43277;52.672;6.984;2022-08-19T07:29:25;18.70;;;14.55;;
57433;SDS011;43277;52.672;6.984;2022-08-19T07:31:52;15.82;;;14.07;;
57433;SDS011;43277;52.672;6.984;2022-08-19T07:34:21;18.38;;;14.43;;
57433;SDS011;43277;52.672;6.984;2022-08-19T07:36:49;16.08;;;13.73;;
57433;SDS011;43277;52.672;6.984;2022-08-19T07:39:19;18.00;;;15.05;;
57433;SDS011;43277;52.672;6.984;2022-08-19T07:41:47;20.35;;;14.95;;
57433;SDS011;43277;52.672;6.984;2022-08-19T07:44:13;18.10;;;13.43;;
57433;SDS011;43277;52.672;6.984;2022-08-19T07:46:42;18.17;;;13.18;;
57433;SDS011;43277;52.672;6.984;2022-08-19T07:49:09;15.45;;;12.02;;
57433;SDS011;43277;52.672;6.984;2022-08-19T07:51:57;13.23;;;11.18;;
57433;SDS011;43277;52.672;6.984;2022-08-19T07:54:27;12.95;;;10.35;;
57433;SDS011;43277;52.672;6.984;2022-08-19T07:56:54;12.93;;;10.48;;
57433;SDS011;43277;52.672;6.984;2022-08-19T07:59:21;15.10;;;10.38;;
57433;SDS011;43277;52.672;6.984;2022-08-19T08:01:47;12.30;;;9.18;;
57433;SDS011;43277;52.672;6.984;2022-08-19T08:04:15;14.05;;;9.77;;
57433;SDS011;43277;52.672;6.984;2022-08-19T08:07:00;12.95;;;10.70;;
57433;SDS011;43277;52.672;6.984;2022-08-19T08:09:44;14.02;;;10.07;;
57433;SDS011;43277;52.672;6.984;2022-08-19T08:12:12;13.10;;;9.85;;
57433;SDS011;43277;52.672;6.984;2022-08-19T08:14:42;14.82;;;11.50;;
57433;SDS011;43277;52.672;6.984;2022-08-19T08:17:09;12.73;;;11.07;;
57433;SDS011;43277;52.672;6.984;2022-08-19T08:19:36;14.18;;;11.70;;
57433;SDS011;43277;52.672;6.984;2022-08-19T08:22:03;14.25;;;10.80;;
57433;SDS011;43277;52.672;6.984;2022-08-19T08:24:31;13.52;;;10.70;;
57433;SDS011;43277;52.672;6.984;2022-08-19T08:26:57;13.32;;;10.90;;
57433;SDS011;43277;52.672;6.984;2022-08-19T08:29:25;19.98;;;11.38;;
57433;SDS011;43277;52.672;6.984;2022-08-19T08:31:52;13.70;;;11.43;;
57433;SDS011;43277;52.672;6.984;2022-08-19T08:34:18;14.48;;;12.18;;
57433;SDS011;43277;52.672;6.984;2022-08-19T08:36:44;14.30;;;11.45;;
57433;SDS011;43277;52.672;6.984;2022-08-19T08:39:12;12.45;;;11.07;;
57433;SDS011;43277;52.672;6.984;2022-08-19T08:41:44;16.23;;;11.20;;
57433;SDS011;43277;52.672;6.984;2022-08-19T08:44:31;12.77;;;10.93;;
57433;SDS011;43277;52.672;6.984;2022-08-19T08:47:15;13.98;;;10.85;;
57433;SDS011;43277;52.672;6.984;2022-08-19T08:49:45;16.42;;;11.40;;
57433;SDS011;43277;52.672;6.984;2022-08-19T08:54:55;15.20;;;11.80;;
57433;SDS011;43277;52.672;6.984;2022-08-19T08:57:27;19.02;;;13.23;;
57433;SDS011;43277;52.672;6.984;2022-08-19T09:00:03;14.48;;;12.90;;
57433;SDS011;43277;52.672;6.984;2022-08-19T09:02:32;16.83;;;13.02;;
57433;SDS011;43277;52.672;6.984;2022-08-19T09:04:58;14.77;;;12.95;;
57433;SDS011;43277;52.672;6.984;2022-08-19T09:07:26;16.42;;;13.65;;
57433;SDS011;43277;52.672;6.984;2022-08-19T09:09:56;13.57;;;12.18;;
57433;SDS011;43277;52.672;6.984;2022-08-19T09:15:40;15.05;;;11.95;;
57433;SDS011;43277;52.672;6.984;2022-08-19T09:18:13;11.07;;;9.27;;
57433;SDS011;43277;52.672;6.984;2022-08-19T09:20:41;13.70;;;10.65;;
57433;SDS011;43277;52.672;6.984;2022-08-19T09:23:07;11.02;;;9.55;;
57433;SDS011;43277;52.672;6.984;2022-08-19T09:25:33;12.45;;;9.38;;
57433;SDS011;43277;52.672;6.984;2022-08-19T09:27:59;10.98;;;8.63;;
57433;SDS011;43277;52.672;6.984;2022-08-19T09:30:28;10.93;;;7.20;;
57433;SDS011;43277;52.672;6.984;2022-08-19T09:32:56;11.35;;;9.32;;
57433;SDS011;43277;52.672;6.984;2022-08-19T09:35:22;11.02;;;8.73;;
57433;SDS011;43277;52.672;6.984;2022-08-19T09:37:50;11.20;;;9.65;;
57433;SDS011;43277;52.672;6.984;2022-08-19T09:40:16;11.80;;;9.48;;
57433;SDS011;43277;52.672;6.984;2022-08-19T09:42:43;15.57;;;11.02;;
57433;SDS011;43277;52.672;6.984;2022-08-19T09:45:11;10.18;;;8.63;;
57433;SDS011;43277;52.672;6.984;2022-08-19T09:47:37;12.90;;;9.18;;
57433;SDS011;43277;52.672;6.984;2022-08-19T09:50:06;10.55;;;7.38;;
57433;SDS011;43277;52.672;6.984;2022-08-19T09:52:34;8.40;;;5.43;;
57433;SDS011;43277;52.672;6.984;2022-08-19T09:55:02;8.63;;;5.60;;
57433;SDS011;43277;52.672;6.984;2022-08-19T09:57:31;8.23;;;5.57;;
57433;SDS011;43277;52.672;6.984;2022-08-19T09:59:57;8.57;;;5.20;;
57433;SDS011;43277;52.672;6.984;2022-08-19T10:02:23;9.55;;;7.30;;
57433;SDS011;43277;52.672;6.984;2022-08-19T10:04:49;8.15;;;4.45;;
57433;SDS011;43277;52.672;6.984;2022-08-19T10:07:34;11.48;;;9.40;;
57433;SDS011;43277;52.672;6.984;2022-08-19T10:10:00;15.07;;;9.45;;
57433;SDS011;43277;52.672;6.984;2022-08-19T10:12:26;8.40;;;6.82;;
57433;SDS011;43277;52.672;6.984;2022-08-19T10:14:51;10.98;;;7.40;;
57433;SDS011;43277;52.672;6.984;2022-08-19T10:17:19;10.63;;;8.88;;
57433;SDS011;43277;52.672;6.984;2022-08-19T10:19:45;13.43;;;8.82;;
57433;SDS011;43277;52.672;6.984;2022-08-19T10:22:10;12.15;;;8.95;;
57433;SDS011;43277;52.672;6.984;2022-08-19T10:24:38;9.77;;;7.30;;
57433;SDS011;43277;52.672;6.984;2022-08-19T10:27:04;9.05;;;7.50;;
57433;SDS011;43277;52.672;6.984;2022-08-19T10:29:30;8.77;;;6.63;;
57433;SDS011;43277;52.672;6.984;2022-08-19T10:31:57;12.18;;;8.75;;
57433;SDS011;43277;52.672;6.984;2022-08-19T10:34:25;12.50;;;11.20;;
57433;SDS011;43277;52.672;6.984;2022-08-19T10:36:51;10.20;;;8.77;;
57433;SDS011;43277;52.672;6.984;2022-08-19T10:39:16;10.30;;;7.78;;
57433;SDS011;43277;52.672;6.984;2022-08-19T10:41:42;11.93;;;7.57;;
57433;SDS011;43277;52.672;6.984;2022-08-19T10:44:11;11.20;;;8.70;;
57433;SDS011;43277;52.672;6.984;2022-08-19T10:46:39;11.38;;;7.90;;
57433;SDS011;43277;52.672;6.984;2022-08-19T10:49:07;9.65;;;7.57;;
57433;SDS011;43277;52.672;6.984;2022-08-19T10:51:35;9.35;;;6.97;;
57433;SDS011;43277;52.672;6.984;2022-08-19T10:54:19;9.50;;;7.68;;
57433;SDS011;43277;52.672;6.984;2022-08-19T10:56:45;9.00;;;6.32;;
57433;SDS011;43277;52.672;6.984;2022-08-19T10:59:21;10.45;;;7.53;;
57433;SDS011;43277;52.672;6.984;2022-08-19T11:01:49;12.43;;;8.25;;
57433;SDS011;43277;52.672;6.984;2022-08-19T11:04:16;10.13;;;7.20;;
57433;SDS011;43277;52.672;6.984;2022-08-19T11:06:46;9.48;;;6.88;;
57433;SDS011;43277;52.672;6.984;2022-08-19T11:09:14;10.70;;;7.22;;
57433;SDS011;43277;52.672;6.984;2022-08-19T11:11:41;8.23;;;6.63;;
57433;SDS011;43277;52.672;6.984;2022-08-19T11:14:07;7.97;;;5.75;;
57433;SDS011;43277;52.672;6.984;2022-08-19T11:16:35;8.95;;;5.18;;
57433;SDS011;43277;52.672;6.984;2022-08-19T11:19:03;10.35;;;4.88;;
57433;SDS011;43277;52.672;6.984;2022-08-19T11:21:33;9.35;;;6.72;;
57433;SDS011;43277;52.672;6.984;2022-08-19T11:24:35;10.70;;;6.57;;
57433;SDS011;43277;52.672;6.984;2022-08-19T11:26:54;9.27;;;5.88;;
57433;SDS011;43277;52.672;6.984;2022-08-19T11:29:25;9.52;;;5.93;;
57433;SDS011;43277;52.672;6.984;2022-08-19T11:31:52;12.63;;;5.20;;
57433;SDS011;43277;52.672;6.984;2022-08-19T11:34:21;9.43;;;6.32;;
57433;SDS011;43277;52.672;6.984;2022-08-19T11:36:48;7.05;;;5.70;;
57433;SDS011;43277;52.672;6.984;2022-08-19T11:39:16;7.45;;;5.07;;
57433;SDS011;43277;52.672;6.984;2022-08-19T11:41:44;7.70;;;6.28;;
57433;SDS011;43277;52.672;6.984;2022-08-19T11:44:09;8.70;;;5.28;;
57433;SDS011;43277;52.672;6.984;2022-08-19T11:46:36;10.68;;;6.85;;
57433;SDS011;43277;52.672;6.984;2022-08-19T11:49:03;8.05;;;5.00;;
57433;SDS011;43277;52.672;6.984;2022-08-19T11:51:31;6.78;;;5.60;;
57433;SDS011;43277;52.672;6.984;2022-08-19T11:53:57;5.80;;;3.53;;
57433;SDS011;43277;52.672;6.984;2022-08-19T11:56:24;8.25;;;4.80;;
57433;SDS011;43277;52.672;6.984;2022-08-19T11:58:51;8.25;;;5.22;;
57433;SDS011;43277;52.672;6.984;2022-08-19T12:01:18;7.72;;;5.35;;
57433;SDS011;43277;52.672;6.984;2022-08-19T12:03:46;7.40;;;5.55;;
57433;SDS011;43277;52.672;6.984;2022-08-19T12:06:14;6.80;;;4.93;;
57433;SDS011;43277;52.672;6.984;2022-08-19T12:08:43;8.90;;;6.00;;
57433;SDS011;43277;52.672;6.984;2022-08-19T12:11:09;7.22;;;5.20;;
57433;SDS011;43277;52.672;6.984;2022-08-19T12:13:36;9.15;;;6.05;;
57433;SDS011;43277;52.672;6.984;2022-08-19T12:16:14;9.15;;;6.15;;
57433;SDS011;43277;52.672;6.984;2022-08-19T12:18:43;10.88;;;6.95;;
57433;SDS011;43277;52.672;6.984;2022-08-19T12:21:11;10.13;;;7.38;;
57433;SDS011;43277;52.672;6.984;2022-08-19T12:23:39;9.60;;;7.68;;
57433;SDS011;43277;52.672;6.984;2022-08-19T12:26:05;8.43;;;6.28;;
57433;SDS011;43277;52.672;6.984;2022-08-19T12:28:31;7.63;;;5.93;;
57433;SDS011;43277;52.672;6.984;2022-08-19T12:30:57;8.55;;;5.10;;
57433;SDS011;43277;52.672;6.984;2022-08-19T12:33:22;8.00;;;4.90;;
57433;SDS011;43277;52.672;6.984;2022-08-19T12:35:50;7.60;;;4.30;;
57433;SDS011;43277;52.672;6.984;2022-08-19T12:38:16;6.22;;;4.00;;
57433;SDS011;43277;52.672;6.984;2022-08-19T12:40:46;7.97;;;6.00;;
57433;SDS011;43277;52.672;6.984;2022-08-19T12:43:13;9.05;;;4.40;;
57433;SDS011;43277;52.672;6.984;2022-08-19T12:45:40;8.63;;;4.88;;
57433;SDS011;43277;52.672;6.984;2022-08-19T12:48:07;11.48;;;5.93;;
57433;SDS011;43277;52.672;6.984;2022-08-19T12:50:33;9.95;;;6.65;;
57433;SDS011;43277;52.672;6.984;2022-08-19T12:52:59;9.77;;;5.38;;
57433;SDS011;43277;52.672;6.984;2022-08-19T12:55:24;8.65;;;4.70;;
57433;SDS011;43277;52.672;6.984;2022-08-19T12:57:50;10.65;;;5.40;;
57433;SDS011;43277;52.672;6.984;2022-08-19T13:00:17;8.88;;;7.10;;
57433;SDS011;43277;52.672;6.984;2022-08-19T13:02:46;7.35;;;5.07;;
57433;SDS011;43277;52.672;6.984;2022-08-19T13:05:16;10.05;;;6.35;;
57433;SDS011;43277;52.672;6.984;2022-08-19T13:07:47;9.77;;;7.47;;
57433;SDS011;43277;52.672;6.984;2022-08-19T13:10:16;7.18;;;4.30;;
57433;SDS011;43277;52.672;6.984;2022-08-19T13:12:43;7.90;;;5.15;;
57433;SDS011;43277;52.672;6.984;2022-08-19T13:15:10;9.18;;;4.60;;
57433;SDS011;43277;52.672;6.984;2022-08-19T13:17:37;8.95;;;6.63;;
57433;SDS011;43277;52.672;6.984;2022-08-19T13:20:04;10.35;;;6.68;;
57433;SDS011;43277;52.672;6.984;2022-08-19T13:22:32;10.98;;;4.90;;
57433;SDS011;43277;52.672;6.984;2022-08-19T13:25:00;8.70;;;6.07;;
57433;SDS011;43277;52.672;6.984;2022-08-19T13:27:26;8.07;;;4.68;;
57433;SDS011;43277;52.672;6.984;2022-08-19T13:29:51;7.25;;;4.72;;
57433;SDS011;43277;52.672;6.984;2022-08-19T13:32:36;8.57;;;5.40;;
57433;SDS011;43277;52.672;6.984;2022-08-19T13:35:20;9.10;;;6.75;;
57433;SDS011;43277;52.672;6.984;2022-08-19T13:37:45;8.27;;;6.50;;
57433;SDS011;43277;52.672;6.984;2022-08-19T13:40:13;8.68;;;6.57;;
57433;SDS011;43277;52.672;6.984;2022-08-19T13:42:48;9.85;;;6.72;;
57433;SDS011;43277;52.672;6.984;2022-08-19T13:45:16;11.95;;;8.10;;
57433;SDS011;43277;52.672;6.984;2022-08-19T13:47:45;10.20;;;8.75;;
57433;SDS011;43277;52.672;6.984;2022-08-19T13:50:13;13.43;;;9.60;;
57433;SDS011;43277;52.672;6.984;2022-08-19T13:52:43;10.57;;;8.68;;
57433;SDS011;43277;52.672;6.984;2022-08-19T13:55:09;13.68;;;9.98;;
57433;SDS011;43277;52.672;6.984;2022-08-19T13:57:36;10.93;;;6.90;;
57433;SDS011;43277;52.672;6.984;2022-08-19T14:00:04;11.90;;;8.40;;
57433;SDS011;43277;52.672;6.984;2022-08-19T14:02:36;10.70;;;8.73;;
57433;SDS011;43277;52.672;6.984;2022-08-19T14:05:03;16.75;;;8.32;;
57433;SDS011;43277;52.672;6.984;2022-08-19T14:07:31;11.63;;;8.15;;
57433;SDS011;43277;52.672;6.984;2022-08-19T14:09:57;12.55;;;9.25;;
57433;SDS011;43277;52.672;6.984;2022-08-19T14:12:22;8.93;;;6.20;;
57433;SDS011;43277;52.672;6.984;2022-08-19T14:14:48;10.70;;;7.07;;
57433;SDS011;43277;52.672;6.984;2022-08-19T14:17:14;11.00;;;9.23;;
57433;SDS011;43277;52.672;6.984;2022-08-19T14:19:41;11.18;;;9.30;;
57433;SDS011;43277;52.672;6.984;2022-08-19T14:22:07;11.35;;;8.63;;
57433;SDS011;43277;52.672;6.984;2022-08-19T14:24:34;9.80;;;8.57;;
57433;SDS011;43277;52.672;6.984;2022-08-19T14:27:01;9.05;;;7.22;;
57433;SDS011;43277;52.672;6.984;2022-08-19T14:29:28;10.55;;;6.10;;
57433;SDS011;43277;52.672;6.984;2022-08-19T14:31:54;12.10;;;6.20;;
57433;SDS011;43277;52.672;6.984;2022-08-19T14:34:22;7.20;;;5.00;;
57433;SDS011;43277;52.672;6.984;2022-08-19T14:36:47;11.02;;;7.00;;
57433;SDS011;43277;52.672;6.984;2022-08-19T14:39:13;9.73;;;6.80;;
57433;SDS011;43277;52.672;6.984;2022-08-19T14:41:40;7.85;;;5.68;;
57433;SDS011;43277;52.672;6.984;2022-08-19T14:44:06;7.47;;;5.25;;